createdAt,value
2023-06-04T00:00:28.675Z,100388.46
2023-06-04T00:03:16.175Z,100393.86
2023-06-04T00:05:43.425Z,100390.48
2023-06-04T00:08:10.808Z,100395.30
2023-06-04T00:10:40.377Z,100393.90
2023-06-04T00:13:07.613Z,100393.15
2023-06-04T00:15:34.757Z,100402.52
2023-06-04T00:18:02.859Z,100401.27
2023-06-04T00:20:30.167Z,100403.70
2023-06-04T00:22:57.507Z,100402.86
2023-06-04T00:25:24.705Z,100403.75
2023-06-04T00:27:52.739Z,100398.23
2023-06-04T00:30:20.241Z,100396.37
2023-06-04T00:32:47.831Z,100405.38
2023-06-04T00:35:15.555Z,100404.43
2023-06-04T00:37:42.749Z,100408.88
2023-06-04T00:40:10.295Z,100407.85
2023-06-04T00:42:38.252Z,100402.48
2023-06-04T00:45:08.421Z,100408.26
2023-06-04T00:47:36.043Z,100400.69
2023-06-04T00:50:03.455Z,100405.27
2023-06-04T00:52:31.020Z,100400.83
2023-06-04T00:54:58.729Z,100394.27
2023-06-04T00:57:25.989Z,100411.27
2023-06-04T00:59:53.468Z,100410.12
2023-06-04T01:02:23.681Z,100407.83
2023-06-04T01:05:09.277Z,100409.96
2023-06-04T01:07:39.278Z,100399.51
2023-06-04T01:10:07.364Z,100393.02
2023-06-04T01:12:34.523Z,100399.47
2023-06-04T01:15:01.853Z,100400.06
2023-06-04T01:17:47.884Z,100400.84
2023-06-04T01:20:35.488Z,100399.77
2023-06-04T01:23:14.643Z,100401.05
2023-06-04T01:25:44.632Z,100398.21
2023-06-04T01:28:13.416Z,100395.13
2023-06-04T01:30:43.905Z,100394.96
2023-06-04T01:33:13.163Z,100394.07
2023-06-04T01:35:40.839Z,100398.14
2023-06-04T01:38:08.541Z,100395.52
2023-06-04T01:40:36.055Z,100399.08
2023-06-04T01:43:04.597Z,100397.42
2023-06-04T01:45:31.856Z,100399.39
2023-06-04T01:48:04.658Z,100404.49
2023-06-04T01:50:31.966Z,100409.70
2023-06-04T01:52:59.653Z,100407.52
2023-06-04T01:55:28.833Z,100402.02
2023-06-04T01:57:56.104Z,100402.36
2023-06-04T02:00:23.667Z,100403.72
2023-06-04T02:02:51.393Z,100406.13
2023-06-04T02:05:18.813Z,100402.80
2023-06-04T02:07:48.328Z,100402.53
2023-06-04T02:10:17.179Z,100401.23
2023-06-04T02:13:03.930Z,100400.05
2023-06-04T02:15:32.386Z,100400.38
2023-06-04T02:18:13.697Z,100395.11
2023-06-04T02:20:41.281Z,100392.88
2023-06-04T02:23:08.404Z,100397.61
2023-06-04T02:25:35.499Z,100399.02
2023-06-04T02:28:02.860Z,100395.11
2023-06-04T02:30:30.069Z,100396.77
2023-06-04T02:32:57.920Z,100402.30
2023-06-04T02:35:25.590Z,100399.19
2023-06-04T02:37:52.696Z,100406.74
2023-06-04T02:40:20.040Z,100409.95
2023-06-04T02:42:47.300Z,100415.71
2023-06-04T02:45:15.079Z,100418.84
2023-06-04T02:47:42.622Z,100420.96
2023-06-04T02:50:10.235Z,100413.55
2023-06-04T02:52:41.971Z,100419.51
2023-06-04T02:55:12.984Z,100423.55
2023-06-04T02:57:44.159Z,100414.63
2023-06-04T03:00:14.064Z,100421.98
2023-06-04T03:02:46.917Z,100417.75
2023-06-04T03:05:15.517Z,100411.77
2023-06-04T03:07:44.215Z,100415.41
2023-06-04T03:10:12.254Z,100414.55
2023-06-04T03:12:39.449Z,100411.80
2023-06-04T03:15:07.292Z,100414.23
2023-06-04T03:17:34.569Z,100414.34
2023-06-04T03:20:02.082Z,100415.84
2023-06-04T03:22:30.045Z,100413.15
2023-06-04T03:24:57.169Z,100410.14
2023-06-04T03:27:24.487Z,100416.59
2023-06-04T03:29:51.760Z,100418.54
2023-06-04T03:32:19.558Z,100419.75
2023-06-04T03:34:47.798Z,100423.32
2023-06-04T03:37:15.187Z,100422.59
2023-06-04T03:39:42.465Z,100429.89
2023-06-04T03:42:11.962Z,100428.89
2023-06-04T03:44:39.442Z,100429.17
2023-06-04T03:47:08.281Z,100429.59
2023-06-04T03:49:35.949Z,100429.91
2023-06-04T03:52:03.168Z,100435.89
2023-06-04T03:54:31.459Z,100435.38
2023-06-04T03:56:58.763Z,100435.91
2023-06-04T03:59:25.830Z,100440.48
2023-06-04T04:01:53.475Z,100441.88
2023-06-04T04:04:21.066Z,100438.82
2023-06-04T04:06:48.847Z,100437.89
2023-06-04T04:09:16.135Z,100432.70
2023-06-04T04:11:43.338Z,100439.42
2023-06-04T04:14:11.052Z,100440.34
2023-06-04T04:16:38.394Z,100441.83
2023-06-04T04:19:08.471Z,100441.17
2023-06-04T04:21:38.221Z,100441.95
2023-06-04T04:24:05.939Z,100439.46
2023-06-04T04:26:33.149Z,100444.25
2023-06-04T04:29:00.480Z,100447.60
2023-06-04T04:31:31.216Z,100443.96
2023-06-04T04:33:58.471Z,100445.31
2023-06-04T04:36:25.923Z,100442.11
2023-06-04T04:38:54.924Z,100444.71
2023-06-04T04:41:24.218Z,100440.60
2023-06-04T04:43:53.664Z,100441.06
2023-06-04T04:46:24.484Z,100440.16
2023-06-04T04:48:51.934Z,100441.84
2023-06-04T04:51:19.299Z,100444.67
2023-06-04T04:53:46.580Z,100445.01
2023-06-04T04:56:14.093Z,100444.66
2023-06-04T04:58:44.074Z,100446.06
2023-06-04T05:01:11.279Z,100440.98
2023-06-04T05:03:38.754Z,100447.17
2023-06-04T05:06:06.553Z,100449.65
2023-06-04T05:08:33.815Z,100450.27
2023-06-04T05:11:01.158Z,100452.23
2023-06-04T05:13:29.233Z,100454.70
2023-06-04T05:16:07.199Z,100453.89
2023-06-04T05:18:41.913Z,100445.29
2023-06-04T05:21:12.138Z,100462.81
2023-06-04T05:23:43.020Z,100460.10
2023-06-04T05:26:10.190Z,100459.74
2023-06-04T05:28:37.496Z,100464.45
2023-06-04T05:31:05.302Z,100465.92
2023-06-04T05:33:34.491Z,100467.63
2023-06-04T05:36:05.122Z,100467.67
2023-06-04T05:38:36.852Z,100468.88
2023-06-04T05:41:06.995Z,100466.04
2023-06-04T05:43:35.936Z,100468.77
2023-06-04T05:46:03.536Z,100467.89
2023-06-04T05:48:31.035Z,100471.34
2023-06-04T05:50:58.309Z,100474.20
2023-06-04T05:53:25.708Z,100479.11
2023-06-04T05:55:53.505Z,100477.73
2023-06-04T05:58:20.870Z,100482.09
2023-06-04T06:00:50.745Z,100476.80
2023-06-04T06:03:18.278Z,100480.56
2023-06-04T06:05:46.284Z,100481.56
2023-06-04T06:08:14.820Z,100474.88
2023-06-04T06:10:42.903Z,100474.83
2023-06-04T06:13:10.215Z,100480.41
2023-06-04T06:15:37.444Z,100482.79
2023-06-04T06:18:05.217Z,100478.60
2023-06-04T06:20:32.803Z,100483.48
2023-06-04T06:23:07.261Z,100488.09
2023-06-04T06:25:34.754Z,100482.11
2023-06-04T06:28:07.730Z,100490.41
2023-06-04T06:30:36.362Z,100490.85
2023-06-04T06:33:03.542Z,100491.73
2023-06-04T06:35:30.777Z,100486.95
2023-06-04T06:37:57.928Z,100493.34
2023-06-04T06:40:25.415Z,100494.28
2023-06-04T06:42:52.845Z,100497.34
2023-06-04T06:45:20.382Z,100500.34
2023-06-04T06:47:47.608Z,100499.31
2023-06-04T06:50:15.068Z,100499.64
2023-06-04T06:52:42.423Z,100499.07
2023-06-04T06:55:09.622Z,100491.89
2023-06-04T06:57:36.944Z,100496.00
2023-06-04T07:00:05.678Z,100489.66
2023-06-04T07:02:33.004Z,100488.21
2023-06-04T07:05:00.261Z,100488.89
2023-06-04T07:07:27.418Z,100491.36
2023-06-04T07:09:54.472Z,100496.17
2023-06-04T07:12:21.980Z,100498.71
2023-06-04T07:14:49.081Z,100498.41
2023-06-04T07:17:16.217Z,100491.16
2023-06-04T07:19:43.564Z,100491.96
2023-06-04T07:22:11.223Z,100489.11
2023-06-04T07:24:40.090Z,100491.84
2023-06-04T07:27:15.508Z,100488.73
2023-06-04T07:29:46.013Z,100486.39
2023-06-04T07:32:13.603Z,100484.06
2023-06-04T07:34:40.753Z,100477.79
2023-06-04T07:37:10.020Z,100480.23
2023-06-04T07:39:37.556Z,100475.19
2023-06-04T07:42:06.331Z,100483.00
2023-06-04T07:44:33.856Z,100483.51
2023-06-04T07:47:01.212Z,100483.48
2023-06-04T07:49:28.345Z,100483.67
2023-06-04T07:51:56.010Z,100487.15
2023-06-04T07:54:23.288Z,100473.98
2023-06-04T07:56:56.293Z,100468.20
2023-06-04T07:59:23.971Z,100478.48
2023-06-04T08:01:55.110Z,100476.38
2023-06-04T08:04:22.700Z,100474.08
2023-06-04T08:06:50.897Z,100474.02
2023-06-04T08:09:18.154Z,100474.10
2023-06-04T08:11:45.738Z,100469.70
2023-06-04T08:14:13.738Z,100472.91
2023-06-04T08:16:41.262Z,100467.34
2023-06-04T08:19:09.078Z,100467.81
2023-06-04T08:21:36.554Z,100463.45
2023-06-04T08:24:04.086Z,100467.35
2023-06-04T08:26:31.345Z,100467.42
2023-06-04T08:28:58.791Z,100470.55
2023-06-04T08:31:26.376Z,100470.20
2023-06-04T08:33:53.617Z,100471.74
2023-06-04T08:36:21.003Z,100470.52
2023-06-04T08:38:52.729Z,100474.50
2023-06-04T08:41:22.888Z,100473.63
2023-06-04T08:43:50.635Z,100474.38
2023-06-04T08:46:18.738Z,100464.00
2023-06-04T08:48:46.299Z,100461.46
2023-06-04T08:51:14.665Z,100468.36
2023-06-04T08:53:43.562Z,100464.61
2023-06-04T08:56:11.866Z,100469.44
2023-06-04T08:58:41.201Z,100464.44
2023-06-04T09:01:09.313Z,100464.56
2023-06-04T09:03:37.958Z,100462.60
2023-06-04T09:06:06.559Z,100457.24
2023-06-04T09:08:38.606Z,100445.61
2023-06-04T09:11:07.039Z,100444.10
2023-06-04T09:13:34.918Z,100452.89
2023-06-04T09:16:03.699Z,100445.02
2023-06-04T09:18:31.325Z,100446.43
2023-06-04T09:21:09.564Z,100444.78
2023-06-04T09:23:49.474Z,100440.02
2023-06-04T09:26:17.136Z,100431.02
2023-06-04T09:28:46.339Z,100436.91
2023-06-04T09:31:17.464Z,100433.65
2023-06-04T09:33:45.867Z,100431.61
2023-06-04T09:36:13.036Z,100434.99
2023-06-04T09:38:40.476Z,100438.36
2023-06-04T09:41:13.213Z,100432.16
2023-06-04T09:43:41.425Z,100437.09
2023-06-04T09:46:16.714Z,100438.81
2023-06-04T09:48:45.443Z,100439.01
2023-06-04T09:51:20.432Z,100431.86
2023-06-04T09:53:58.684Z,100426.64
2023-06-04T09:56:29.796Z,100421.45
2023-06-04T09:59:02.285Z,100424.56
2023-06-04T10:01:31.282Z,100423.25
2023-06-04T10:04:04.335Z,100419.19
2023-06-04T10:06:34.752Z,100415.89
2023-06-04T10:09:09.842Z,100415.52
2023-06-04T10:11:52.448Z,100411.38
2023-06-04T10:14:24.180Z,100410.94
2023-06-04T10:16:52.254Z,100407.33
2023-06-04T10:19:20.801Z,100403.92
2023-06-04T10:21:48.130Z,100398.76
2023-06-04T10:24:16.320Z,100387.58
2023-06-04T10:26:44.529Z,100381.20
2023-06-04T10:29:13.306Z,100388.03
2023-06-04T10:31:42.082Z,100389.88
2023-06-04T10:34:09.496Z,100388.54
2023-06-04T10:36:46.482Z,100388.32
2023-06-04T10:39:14.031Z,100384.68
2023-06-04T10:41:41.672Z,100380.31
2023-06-04T10:44:09.035Z,100382.41
2023-06-04T10:46:43.506Z,100382.20
2023-06-04T10:49:15.400Z,100381.41
2023-06-04T10:51:44.333Z,100386.14
2023-06-04T10:54:22.739Z,100376.77
2023-06-04T10:56:50.115Z,100378.89
2023-06-04T10:59:18.556Z,100378.52
2023-06-04T11:01:46.777Z,100376.70
2023-06-04T11:04:25.708Z,100374.89
2023-06-04T11:07:09.317Z,100373.58
2023-06-04T11:09:49.458Z,100379.95
2023-06-04T11:12:17.138Z,100374.73
2023-06-04T11:14:57.762Z,100374.91
2023-06-04T11:17:25.309Z,100375.02
2023-06-04T11:19:55.907Z,100378.66
2023-06-04T11:22:23.126Z,100377.12
2023-06-04T11:24:52.992Z,100376.92
2023-06-04T11:27:28.357Z,100375.55
2023-06-04T11:30:03.330Z,100369.59
2023-06-04T11:32:31.183Z,100365.25
2023-06-04T11:35:07.017Z,100361.80
2023-06-04T11:37:34.924Z,100360.67
2023-06-04T11:40:02.419Z,100358.10
2023-06-04T11:42:30.273Z,100353.19
2023-06-04T11:44:58.255Z,100357.41
2023-06-04T11:47:26.311Z,100354.67
2023-06-04T11:49:57.405Z,100357.71
2023-06-04T11:52:24.969Z,100356.56
2023-06-04T11:54:52.445Z,100353.64
2023-06-04T11:57:19.649Z,100352.83
2023-06-04T11:59:46.826Z,100348.13
2023-06-04T12:02:14.298Z,100351.21
2023-06-04T12:04:41.723Z,100346.86
2023-06-04T12:07:10.642Z,100345.13
2023-06-04T12:09:41.067Z,100343.55
2023-06-04T12:12:09.053Z,100351.54
2023-06-04T12:14:36.691Z,100349.40
2023-06-04T12:17:08.529Z,100349.77
2023-06-04T12:19:49.633Z,100350.49
2023-06-04T12:22:17.559Z,100345.86
2023-06-04T12:25:03.772Z,100340.73
2023-06-04T12:27:32.233Z,100338.71
2023-06-04T12:30:01.050Z,100330.09
2023-06-04T12:32:29.058Z,100335.23
2023-06-04T12:34:56.523Z,100331.12
2023-06-04T12:37:26.068Z,100333.65
2023-06-04T12:39:54.233Z,100326.23
2023-06-04T12:42:21.924Z,100331.86
2023-06-04T12:44:49.066Z,100331.62
2023-06-04T12:47:17.671Z,100329.79
2023-06-04T12:49:56.241Z,100326.92
2023-06-04T12:52:27.080Z,100327.25
2023-06-04T12:54:54.676Z,100329.27
2023-06-04T12:57:21.878Z,100332.73
2023-06-04T12:59:49.145Z,100328.33
2023-06-04T13:02:16.587Z,100331.02
2023-06-04T13:04:46.614Z,100331.23
2023-06-04T13:07:14.338Z,100328.80
2023-06-04T13:09:41.810Z,100330.03
2023-06-04T13:12:10.122Z,100325.55
2023-06-04T13:14:37.327Z,100315.16
2023-06-04T13:17:20.913Z,100323.42
2023-06-04T13:19:50.342Z,100318.50
2023-06-04T13:22:17.662Z,100318.88
2023-06-04T13:24:44.832Z,100321.88
2023-06-04T13:27:12.028Z,100322.19
2023-06-04T13:29:39.180Z,100313.95
2023-06-04T13:32:06.291Z,100308.84
2023-06-04T13:34:33.882Z,100312.58
2023-06-04T13:37:01.278Z,100309.84
2023-06-04T13:39:28.487Z,100309.98
2023-06-04T13:41:56.122Z,100306.91
2023-06-04T13:44:27.412Z,100300.58
2023-06-04T13:46:55.315Z,100292.29
2023-06-04T13:49:22.661Z,100297.58
2023-06-04T13:51:52.088Z,100294.83
2023-06-04T13:54:19.360Z,100287.92
2023-06-04T13:56:46.740Z,100289.98
2023-06-04T13:59:14.005Z,100290.88
2023-06-04T14:01:41.279Z,100281.07
2023-06-04T14:04:08.961Z,100288.35
2023-06-04T14:06:36.625Z,100287.10
2023-06-04T14:09:04.678Z,100282.95
2023-06-04T14:11:33.369Z,100281.40
2023-06-04T14:14:00.698Z,100280.73
2023-06-04T14:16:28.309Z,100270.34
2023-06-04T14:18:56.261Z,100269.36
2023-06-04T14:21:23.363Z,100274.77
2023-06-04T14:23:50.913Z,100279.44
2023-06-04T14:26:18.785Z,100274.05
2023-06-04T14:28:46.149Z,100272.85
2023-06-04T14:31:13.575Z,100266.44
2023-06-04T14:33:40.976Z,100270.86
2023-06-04T14:36:08.306Z,100259.96
2023-06-04T14:38:35.729Z,100267.89
2023-06-04T14:41:02.939Z,100266.88
2023-06-04T14:43:30.406Z,100267.77
2023-06-04T14:45:57.775Z,100268.80
2023-06-04T14:48:25.461Z,100268.35
2023-06-04T14:50:54.223Z,100259.48
2023-06-04T14:53:21.507Z,100254.08
2023-06-04T14:55:48.861Z,100257.87
2023-06-04T14:58:16.779Z,100253.92
2023-06-04T15:00:43.991Z,100253.44
2023-06-04T15:03:11.571Z,100248.44
2023-06-04T15:05:39.090Z,100243.86
2023-06-04T15:08:06.495Z,100236.44
2023-06-04T15:10:34.763Z,100228.67
2023-06-04T15:13:02.048Z,100231.23
2023-06-04T15:15:29.470Z,100226.33
2023-06-04T15:17:56.922Z,100224.39
2023-06-04T15:20:25.884Z,100224.98
2023-06-04T15:22:54.029Z,100221.53
2023-06-04T15:25:21.378Z,100216.84
2023-06-04T15:27:49.073Z,100222.67
2023-06-04T15:30:17.801Z,100220.33
2023-06-04T15:32:45.291Z,100217.38
2023-06-04T15:35:12.933Z,100214.91
2023-06-04T15:37:40.052Z,100206.94
2023-06-04T15:40:10.350Z,100206.30
2023-06-04T15:42:37.734Z,100209.05
2023-06-04T15:45:06.033Z,100211.22
2023-06-04T15:47:34.402Z,100207.81
2023-06-04T15:50:01.748Z,100205.34
2023-06-04T15:52:29.361Z,100202.42
2023-06-04T15:54:56.542Z,100200.77
2023-06-04T15:57:23.673Z,100197.77
2023-06-04T15:59:50.923Z,100195.42
2023-06-04T16:02:18.276Z,100192.36
2023-06-04T16:04:45.492Z,100193.92
2023-06-04T16:07:12.615Z,100195.77
2023-06-04T16:09:39.951Z,100187.73
2023-06-04T16:12:07.230Z,100196.38
2023-06-04T16:14:34.902Z,100196.60
2023-06-04T16:17:03.749Z,100195.45
2023-06-04T16:19:31.117Z,100195.53
2023-06-04T16:21:58.881Z,100195.98
2023-06-04T16:24:26.248Z,100192.59
2023-06-04T16:26:53.779Z,100196.10
2023-06-04T16:29:20.843Z,100196.00
2023-06-04T16:31:48.930Z,100197.02
2023-06-04T16:34:16.071Z,100194.30
2023-06-04T16:36:43.780Z,100193.59
2023-06-04T16:39:13.040Z,100198.88
2023-06-04T16:41:40.804Z,100195.98
2023-06-04T16:44:08.161Z,100199.02
2023-06-04T16:46:36.526Z,100199.64
2023-06-04T16:49:04.260Z,100197.36
2023-06-04T16:51:31.982Z,100199.17
2023-06-04T16:53:59.533Z,100196.80
2023-06-04T16:56:27.297Z,100195.36
2023-06-04T16:58:54.964Z,100195.35
2023-06-04T17:01:23.031Z,100197.30
2023-06-04T17:03:52.754Z,100200.94
2023-06-04T17:06:20.900Z,100202.60
2023-06-04T17:08:48.482Z,100199.31
2023-06-04T17:11:16.152Z,100199.11
2023-06-04T17:13:43.691Z,100203.46
2023-06-04T17:16:13.391Z,100202.08
2023-06-04T17:18:40.805Z,100201.84
2023-06-04T17:21:08.013Z,100202.80
2023-06-04T17:23:38.757Z,100199.21
2023-06-04T17:26:07.320Z,100207.20
2023-06-04T17:28:35.141Z,100206.18
2023-06-04T17:31:03.432Z,100193.13
2023-06-04T17:33:32.317Z,100200.20
2023-06-04T17:36:02.304Z,100199.68
2023-06-04T17:38:29.670Z,100197.60
2023-06-04T17:40:57.328Z,100193.55
2023-06-04T17:43:25.152Z,100195.19
2023-06-04T17:45:53.000Z,100197.05
2023-06-04T17:48:22.050Z,100201.27
2023-06-04T17:50:50.008Z,100199.85
2023-06-04T17:53:17.336Z,100191.98
2023-06-04T17:55:45.246Z,100201.65
2023-06-04T17:58:12.836Z,100201.78
2023-06-04T18:00:42.804Z,100198.42
2023-06-04T18:03:12.279Z,100202.74
2023-06-04T18:05:39.729Z,100199.99
2023-06-04T18:08:10.699Z,100201.70
2023-06-04T18:10:39.389Z,100201.80
2023-06-04T18:13:08.104Z,100207.15
2023-06-04T18:15:35.235Z,100207.23
2023-06-04T18:18:03.157Z,100218.09
2023-06-04T18:20:33.691Z,100224.04
2023-06-04T18:23:01.656Z,100227.80
2023-06-04T18:25:31.290Z,100230.65
2023-06-04T18:27:59.167Z,100233.45
2023-06-04T18:30:26.813Z,100239.16
2023-06-04T18:32:54.876Z,100241.10
2023-06-04T18:35:22.589Z,100239.26
2023-06-04T18:37:50.146Z,100243.98
2023-06-04T18:40:17.834Z,100241.42
2023-06-04T18:42:46.344Z,100250.34
2023-06-04T18:45:15.420Z,100250.90
2023-06-04T18:47:43.583Z,100250.41
2023-06-04T18:50:12.593Z,100250.23
2023-06-04T18:52:40.219Z,100250.55
2023-06-04T18:55:08.593Z,100252.23
2023-06-04T18:57:37.422Z,100251.88
2023-06-04T19:00:09.250Z,100243.06
2023-06-04T19:02:37.762Z,100246.80
2023-06-04T19:05:10.891Z,100252.08
2023-06-04T19:07:40.360Z,100257.85
2023-06-04T19:10:07.905Z,100260.55
2023-06-04T19:12:35.051Z,100258.28
2023-06-04T19:15:02.932Z,100264.12
2023-06-04T19:17:31.438Z,100257.16
2023-06-04T19:19:58.856Z,100257.67
2023-06-04T19:22:26.825Z,100266.58
2023-06-04T19:24:54.556Z,100264.46
2023-06-04T19:27:22.652Z,100261.30
2023-06-04T19:29:50.431Z,100256.17
2023-06-04T19:32:18.147Z,100251.31
2023-06-04T19:34:49.115Z,100261.39
2023-06-04T19:37:18.137Z,100265.11
2023-06-04T19:39:46.305Z,100266.37
2023-06-04T19:42:13.859Z,100261.92
2023-06-04T19:44:41.867Z,100268.76
2023-06-04T19:47:09.997Z,100269.55
2023-06-04T19:49:37.262Z,100266.81
2023-06-04T19:52:05.759Z,100270.64
2023-06-04T19:54:33.461Z,100269.61
2023-06-04T19:57:01.952Z,100271.90
2023-06-04T19:59:29.886Z,100269.92
2023-06-04T20:01:58.481Z,100262.29
2023-06-04T20:04:26.386Z,100262.17
2023-06-04T20:06:56.189Z,100267.67
2023-06-04T20:09:26.308Z,100268.27
2023-06-04T20:11:55.753Z,100269.35
2023-06-04T20:14:23.890Z,100267.34
2023-06-04T20:16:52.219Z,100271.43
2023-06-04T20:19:21.956Z,100271.17
2023-06-04T20:21:49.840Z,100272.64
2023-06-04T20:24:18.834Z,100273.30
2023-06-04T20:26:48.574Z,100272.98
2023-06-04T20:29:15.808Z,100272.02
2023-06-04T20:31:46.546Z,100275.01
2023-06-04T20:34:15.259Z,100270.31
2023-06-04T20:36:42.932Z,100271.02
2023-06-04T20:39:10.444Z,100262.40
2023-06-04T20:41:39.185Z,100265.54
2023-06-04T20:44:07.528Z,100264.01
2023-06-04T20:46:34.953Z,100262.29
2023-06-04T20:49:04.717Z,100254.66
2023-06-04T20:51:34.697Z,100263.99
2023-06-04T20:54:02.021Z,100266.95
2023-06-04T20:56:29.154Z,100268.38
2023-06-04T20:58:57.483Z,100269.27
2023-06-04T21:01:24.762Z,100277.61
2023-06-04T21:03:53.682Z,100280.19
2023-06-04T21:06:20.972Z,100279.16
2023-06-04T21:08:48.404Z,100275.46
2023-06-04T21:11:15.760Z,100276.33
2023-06-04T21:13:43.236Z,100271.80
2023-06-04T21:16:10.921Z,100275.27
2023-06-04T21:18:38.185Z,100276.06
2023-06-04T21:21:05.488Z,100273.75
2023-06-04T21:23:32.669Z,100272.60
2023-06-04T21:25:59.928Z,100269.27
2023-06-04T21:28:27.332Z,100270.58
2023-06-04T21:30:54.408Z,100271.95
2023-06-04T21:33:21.539Z,100272.34
2023-06-04T21:35:48.636Z,100269.94
2023-06-04T21:38:15.732Z,100279.55
2023-06-04T21:40:43.121Z,100274.48
2023-06-04T21:43:10.947Z,100270.48
2023-06-04T21:45:38.880Z,100269.98
2023-06-04T21:48:06.786Z,100270.93
2023-06-04T21:50:33.942Z,100268.14
2023-06-04T21:53:01.292Z,100276.16
2023-06-04T21:55:28.458Z,100278.13
2023-06-04T21:57:56.788Z,100270.64
2023-06-04T22:00:24.666Z,100275.50
2023-06-04T22:02:52.089Z,100265.73
2023-06-04T22:05:19.548Z,100271.36
2023-06-04T22:07:48.828Z,100273.66
2023-06-04T22:10:16.306Z,100270.20
2023-06-04T22:12:44.910Z,100267.65
2023-06-04T22:15:12.108Z,100264.53
2023-06-04T22:17:39.506Z,100266.39
2023-06-04T22:20:07.797Z,100265.57
2023-06-04T22:22:35.343Z,100267.64
2023-06-04T22:25:02.681Z,100263.02
2023-06-04T22:27:29.823Z,100257.92
2023-06-04T22:29:57.177Z,100261.36
2023-06-04T22:32:24.412Z,100266.98
2023-06-04T22:34:51.572Z,100265.89
2023-06-04T22:37:18.887Z,100265.29
2023-06-04T22:39:46.272Z,100262.89
2023-06-04T22:42:13.369Z,100258.35
2023-06-04T22:44:40.487Z,100263.77
2023-06-04T22:47:09.520Z,100264.26
2023-06-04T22:49:38.384Z,100264.97
2023-06-04T22:52:06.327Z,100268.56
2023-06-04T22:54:33.497Z,100266.44
2023-06-04T22:57:00.897Z,100263.38
2023-06-04T22:59:27.992Z,100261.42
2023-06-04T23:01:55.041Z,100258.95
2023-06-04T23:04:22.608Z,100260.43
2023-06-04T23:06:49.704Z,100259.13
2023-06-04T23:09:16.860Z,100259.34
2023-06-04T23:11:44.334Z,100257.75
2023-06-04T23:14:11.478Z,100255.03
2023-06-04T23:16:39.380Z,100261.79
2023-06-04T23:19:06.873Z,100261.06
2023-06-04T23:21:34.113Z,100254.73
2023-06-04T23:24:01.280Z,100256.50
2023-06-04T23:26:28.688Z,100253.98
2023-06-04T23:28:55.810Z,100263.63
2023-06-04T23:31:22.932Z,100254.78
2023-06-04T23:33:50.258Z,100256.25
2023-06-04T23:36:18.772Z,100258.43
2023-06-04T23:38:47.806Z,100258.86
2023-06-04T23:41:15.294Z,100263.88
2023-06-04T23:43:43.153Z,100264.78
2023-06-04T23:46:10.624Z,100262.44
2023-06-04T23:48:38.222Z,100266.02
2023-06-04T23:51:05.642Z,100259.15
2023-06-04T23:53:33.232Z,100259.75
2023-06-04T23:56:00.696Z,100260.80
2023-06-04T23:58:28.523Z,100266.33
